Weather reports worldwide

Advertisment
Cairngorm, United Kingdom (3065): temperature & dewpoint: 16.07.2019 03:00:00 - 22.07.2019 03:00:00 (BST)Cairngorm, United Kingdom (3065): wind speed & gusts: 16.07.2019 03:00:00 - 22.07.2019 03:00:00 (BST)Cairngorm, United Kingdom (3065): wind direction: 16.07.2019 03:00:00 - 22.07.2019 03:00:00 (BST)
Date & Time tt [°C] td [°C] ff [km/h] ff [kn] fx [km/h] fx [kn] dd
22.07.2019 03:00:00 9,4 9,4 42 23 67 36 S
22.07.2019 02:00:00 9,4 9,4 61 33 76 41 S
22.07.2019 01:00:00 9,5 9,5 55 30 78 42 S
22.07.2019 00:00:00 9,8 9,8 63 34 89 48 S
21.07.2019 23:00:00 9,8 9,8 76 41 117 63 SSW
21.07.2019 22:00:00 9,7 9,7 81 44 111 60 SSW
21.07.2019 21:00:00 9,3 9,2 83 45 115 62 S
21.07.2019 20:00:00 8,8 8,8 91 49 115 62 S
21.07.2019 19:00:00 8,2 8,1 76 41 96 52 S
21.07.2019 18:00:00 7,6 7,6 78 42 94 51 S
21.07.2019 17:00:00 7,0 7,0 72 39 96 52 S
21.07.2019 16:00:00 8,0 6,5 68 37 94 51 S
21.07.2019 15:00:00 7,8 6,3 54 29 70 38 S
21.07.2019 14:00:00 7,9 6,4 48 26 61 33 S
21.07.2019 13:00:00 8,1 6,3 34 18 57 31 SSW
21.07.2019 12:00:00 7,8 5,8 37 20 52 28 SW
21.07.2019 11:00:00 7,7 6,0 35 19 54 29 SW
21.07.2019 10:00:00 6,7 5,9 34 18 55 30 WSW
21.07.2019 09:00:00 6,8 5,2 44 24 61 33 WSW
21.07.2019 08:00:00 6,2 5,8 46 25 67 36 W
21.07.2019 07:00:00 6,3 6,2 42 23 76 41 WSW
21.07.2019 06:00:00 6,2 5,4 54 29 81 44 WSW
21.07.2019 05:00:00 5,9 5,9 54 29 78 42 WSW
21.07.2019 04:00:00 5,9 5,2 52 28 83 45 W
21.07.2019 03:00:00 5,9 5,8 46 25 70 38 WSW
21.07.2019 02:00:00 5,5 5,5 41 22 63 34 W
21.07.2019 01:00:00 5,7 4,7 39 21 63 34 W
21.07.2019 00:00:00 5,4 4,0 44 24 65 35 W
20.07.2019 23:00:00 5,1 4,2 44 24 61 33 W
20.07.2019 22:00:00 5,6 5,6 44 24 63 34 W
20.07.2019 21:00:00 6,2 6,2 48 26 65 35 W
20.07.2019 20:00:00 6,8 6,8 44 24 54 29 W
20.07.2019 19:00:00 7,0 7,0 39 21 - - WNW
20.07.2019 18:00:00 7,1 7,1 22 12 - - WNW
20.07.2019 17:00:00 7,3 7,3 29 16 - - NW
20.07.2019 16:00:00 7,4 7,4 34 18 48 26 NW
20.07.2019 15:00:00 8,1 8,1 31 17 52 28 NW
20.07.2019 14:00:00 7,9 7,6 35 19 52 28 WNW
20.07.2019 13:00:00 8,5 7,9 28 15 46 25 NW
20.07.2019 12:00:00 8,1 7,7 37 20 46 25 WNW
20.07.2019 11:00:00 7,7 7,5 34 18 - - WNW
20.07.2019 10:00:00 7,7 7,7 28 15 - - WNW
20.07.2019 09:00:00 7,5 7,5 18 10 - - WNW
20.07.2019 08:00:00 7,5 7,5 16 9 - - WNW
20.07.2019 07:00:00 8,2 8,2 5 3 - - W
20.07.2019 06:00:00 8,6 8,5 11 6 - - SW
20.07.2019 05:00:00 8,4 8,4 18 10 - - SSE
20.07.2019 04:00:00 8,4 8,3 18 10 - - SE
20.07.2019 03:00:00 8,1 8,1 18 10 - - SE
20.07.2019 02:00:00 8,0 8,0 29 16 - - SE
20.07.2019 01:00:00 7,7 7,7 22 12 - - SE
20.07.2019 00:00:00 7,6 7,6 39 21 48 26 SSE
19.07.2019 23:00:00 7,5 7,5 35 19 52 28 SE
19.07.2019 22:00:00 7,6 7,6 41 22 55 30 SE
19.07.2019 21:00:00 7,6 7,6 29 16 46 25 SSE
19.07.2019 20:00:00 7,6 7,6 28 15 46 25 SSE
19.07.2019 19:00:00 7,7 7,7 44 24 54 29 SSE
19.07.2019 18:00:00 8,2 6,4 31 17 50 27 S
19.07.2019 17:00:00 8,8 5,8 39 21 50 27 S
19.07.2019 16:00:00 8,6 5,7 37 20 48 26 S
19.07.2019 15:00:00 9,4 4,8 28 15 - - S
19.07.2019 14:00:00 9,1 4,3 35 19 46 25 SSW
19.07.2019 13:00:00 9,2 4,1 29 16 52 28 S
19.07.2019 12:00:00 7,7 5,5 39 21 50 27 SSW
19.07.2019 11:00:00 6,5 6,3 35 19 54 29 SSW
19.07.2019 10:00:00 6,3 6,2 34 18 46 25 S
19.07.2019 09:00:00 5,8 5,6 39 21 68 37 SW
19.07.2019 08:00:00 5,9 5,9 57 31 76 41 SW
19.07.2019 07:00:00 5,6 5,5 54 29 78 42 SW
19.07.2019 06:00:00 5,5 5,5 55 30 81 44 SW
19.07.2019 05:00:00 5,3 5,2 59 32 91 49 SW
19.07.2019 04:00:00 5,2 5,2 59 32 76 41 SW
19.07.2019 03:00:00 5,3 5,3 54 29 74 40 SW
19.07.2019 02:00:00 5,6 5,6 52 28 68 37 SW
19.07.2019 01:00:00 5,3 5,3 59 32 80 43 WSW
19.07.2019 00:00:00 5,3 5,1 52 28 78 42 WSW
18.07.2019 23:00:00 5,2 5,2 44 24 68 37 WSW
18.07.2019 22:00:00 5,3 5,3 52 28 80 43 W
18.07.2019 21:00:00 5,4 5,3 52 28 78 42 W
18.07.2019 20:00:00 6,0 5,4 57 31 83 45 W
18.07.2019 19:00:00 5,7 5,3 44 24 72 39 WSW
18.07.2019 18:00:00 6,3 6,3 46 25 70 38 W
18.07.2019 17:00:00 6,7 5,9 54 29 80 43 WSW
18.07.2019 16:00:00 6,4 5,3 50 27 63 34 WSW
18.07.2019 15:00:00 7,1 6,5 37 20 57 31 WSW
18.07.2019 14:00:00 7,9 5,8 39 21 63 34 WSW
18.07.2019 13:00:00 7,5 5,9 42 23 57 31 WSW
18.07.2019 12:00:00 7,5 5,8 35 19 59 32 WSW
18.07.2019 11:00:00 5,8 5,4 42 23 67 36 WSW
18.07.2019 10:00:00 5,5 5,3 42 23 67 36 WSW
18.07.2019 09:00:00 6,2 5,8 41 22 65 35 WSW
18.07.2019 08:00:00 5,0 5,0 42 23 70 38 W
18.07.2019 07:00:00 5,5 5,5 48 26 65 35 W
18.07.2019 06:00:00 4,9 4,8 35 19 54 29 W
18.07.2019 05:00:00 5,7 5,7 37 20 48 26 W
18.07.2019 04:00:00 5,3 5,3 28 15 - - W
18.07.2019 03:00:00 5,0 5,0 31 17 - - WNW
18.07.2019 02:00:00 5,6 5,6 26 14 - - W
18.07.2019 01:00:00 7,0 7,0 11 6 - - W
18.07.2019 00:00:00 8,2 8,2 22 12 - - SW
17.07.2019 23:00:00 8,3 8,3 28 15 - - S
17.07.2019 22:00:00 8,4 8,4 26 14 52 28 SSW
17.07.2019 21:00:00 8,8 8,8 35 19 61 33 SW
17.07.2019 20:00:00 8,4 8,3 41 22 72 39 SW
17.07.2019 19:00:00 8,1 8,1 55 30 80 43 SSW
17.07.2019 18:00:00 7,9 7,9 52 28 78 42 SSW
17.07.2019 17:00:00 7,6 7,6 61 33 85 46 SSW
17.07.2019 16:00:00 7,8 7,8 72 39 102 55 S
17.07.2019 15:00:00 7,4 7,4 74 40 100 54 S
17.07.2019 14:00:00 7,4 7,4 76 41 106 57 S
17.07.2019 13:00:00 7,5 7,4 80 43 109 59 S
17.07.2019 12:00:00 7,7 7,7 80 43 96 52 S
17.07.2019 11:00:00 7,9 7,9 74 40 102 55 S
17.07.2019 10:00:00 7,9 7,9 76 41 96 52 S
17.07.2019 09:00:00 8,1 8,1 74 40 93 50 S
17.07.2019 08:00:00 8,1 8,1 63 34 89 48 S
17.07.2019 07:00:00 8,1 7,3 67 36 87 47 SSW
17.07.2019 06:00:00 7,5 7,5 48 26 63 34 SSW
17.07.2019 05:00:00 7,9 7,9 42 23 57 31 S
17.07.2019 04:00:00 7,9 7,8 28 15 48 26 S
17.07.2019 03:00:00 7,6 7,0 26 14 - - S
17.07.2019 02:00:00 8,5 7,6 31 17 - - S
17.07.2019 01:00:00 8,6 6,0 28 15 - - SSW
17.07.2019 00:00:00 8,6 5,6 29 16 - - SSW
16.07.2019 23:00:00 8,8 4,6 22 12 - - WSW
16.07.2019 22:00:00 9,6 4,0 26 14 - - WSW
16.07.2019 21:00:00 10,2 5,6 26 14 - - W
16.07.2019 20:00:00 11,7 7,0 24 13 - - W
16.07.2019 19:00:00 12,0 6,1 24 13 - - W
16.07.2019 18:00:00 12,5 5,9 28 15 - - W
16.07.2019 17:00:00 11,6 7,3 26 14 - - WSW
16.07.2019 16:00:00 11,3 7,6 31 17 - - W
16.07.2019 15:00:00 11,9 7,2 26 14 - - W
16.07.2019 14:00:00 11,2 7,3 16 9 - - WSW
16.07.2019 13:00:00 11,3 6,9 15 8 - - WSW
16.07.2019 12:00:00 11,6 6,6 8 4 - - S
16.07.2019 11:00:00 11,5 6,4 13 7 - - WSW
16.07.2019 10:00:00 9,7 6,3 15 8 - - W
16.07.2019 09:00:00 9,6 5,9 21 11 - - W
16.07.2019 08:00:00 10,0 2,9 16 9 - - WNW
16.07.2019 07:00:00 9,8 5,7 15 8 - - W
16.07.2019 06:00:00 9,5 7,4 15 8 - - WSW
16.07.2019 05:00:00 9,6 7,1 16 9 - - SW
16.07.2019 04:00:00 8,7 8,2 15 8 - - W
16.07.2019 03:00:00 9,1 7,9 11 6 - - WNW

tt = temperature
td = dewpoint
ff = wind speed
fx = gusts
dd = wind direction

Next stations